sensor_id;sensor_type;location;lat;lon;timestamp;pressure;altitude;pressure_sealevel;temperature;humidity
60642;BME280;46837;52.446;-1.930;2023-12-20T00:00:09;100628.64;;;5.92;80.25
60642;BME280;46837;52.446;-1.930;2023-12-20T00:01:09;100631.12;;;5.90;80.25
60642;BME280;46837;52.446;-1.930;2023-12-20T00:02:09;100627.57;;;5.93;80.34
60642;BME280;46837;52.446;-1.930;2023-12-20T00:03:09;100621.22;;;5.93;80.26
60642;BME280;46837;52.446;-1.930;2023-12-20T00:04:09;100620.02;;;5.92;80.27
60642;BME280;46837;52.446;-1.930;2023-12-20T00:05:09;100612.86;;;5.92;80.31
60642;BME280;46837;52.446;-1.930;2023-12-20T00:06:09;100610.90;;;5.92;80.41
60642;BME280;46837;52.446;-1.930;2023-12-20T00:07:09;100610.25;;;5.90;80.42
60642;BME280;46837;52.446;-1.930;2023-12-20T00:08:09;100609.32;;;5.90;80.44
60642;BME280;46837;52.446;-1.930;2023-12-20T00:09:09;100605.58;;;5.90;80.57
60642;BME280;46837;52.446;-1.930;2023-12-20T00:10:09;100598.28;;;5.91;80.51
60642;BME280;46837;52.446;-1.930;2023-12-20T00:11:09;100589.54;;;5.91;80.52
60642;BME280;46837;52.446;-1.930;2023-12-20T00:12:09;100582.98;;;5.91;80.51
60642;BME280;46837;52.446;-1.930;2023-12-20T00:13:09;100588.47;;;5.91;80.39
60642;BME280;46837;52.446;-1.930;2023-12-20T00:14:09;100588.59;;;5.89;80.47
60642;BME280;46837;52.446;-1.930;2023-12-20T00:15:09;100590.09;;;5.93;80.52
60642;BME280;46837;52.446;-1.930;2023-12-20T00:16:09;100590.39;;;5.96;80.41
60642;BME280;46837;52.446;-1.930;2023-12-20T00:17:09;100592.18;;;5.98;80.41
60642;BME280;46837;52.446;-1.930;2023-12-20T00:18:09;100590.58;;;5.99;80.43
60642;BME280;46837;52.446;-1.930;2023-12-20T00:19:09;100593.18;;;6.01;80.36
60642;BME280;46837;52.446;-1.930;2023-12-20T00:20:09;100592.32;;;6.01;80.34
60642;BME280;46837;52.446;-1.930;2023-12-20T00:21:09;100590.83;;;6.02;80.33
60642;BME280;46837;52.446;-1.930;2023-12-20T00:22:09;100595.48;;;6.06;80.24
60642;BME280;46837;52.446;-1.930;2023-12-20T00:23:09;100595.16;;;6.06;80.23
60642;BME280;46837;52.446;-1.930;2023-12-20T00:24:09;100597.87;;;6.08;80.22
60642;BME280;46837;52.446;-1.930;2023-12-20T00:25:09;100589.69;;;6.08;80.17
60642;BME280;46837;52.446;-1.930;2023-12-20T00:26:09;100595.57;;;6.07;80.16
60642;BME280;46837;52.446;-1.930;2023-12-20T00:27:09;100597.34;;;6.10;80.16
60642;BME280;46837;52.446;-1.930;2023-12-20T00:28:09;100596.65;;;6.10;80.16
60642;BME280;46837;52.446;-1.930;2023-12-20T00:29:09;100590.55;;;6.08;80.17
60642;BME280;46837;52.446;-1.930;2023-12-20T00:30:09;100590.74;;;6.09;80.13
60642;BME280;46837;52.446;-1.930;2023-12-20T00:31:09;100594.04;;;6.10;80.24
60642;BME280;46837;52.446;-1.930;2023-12-20T00:32:09;100598.83;;;6.13;80.16
60642;BME280;46837;52.446;-1.930;2023-12-20T00:33:09;100593.62;;;6.11;80.04
60642;BME280;46837;52.446;-1.930;2023-12-20T00:34:09;100598.78;;;6.07;80.15
60642;BME280;46837;52.446;-1.930;2023-12-20T00:35:09;100602.08;;;6.11;80.24
60642;BME280;46837;52.446;-1.930;2023-12-20T00:36:09;100610.32;;;6.14;80.15
60642;BME280;46837;52.446;-1.930;2023-12-20T00:37:09;100605.22;;;6.13;80.17
60642;BME280;46837;52.446;-1.930;2023-12-20T00:38:09;100606.40;;;6.14;80.19
60642;BME280;46837;52.446;-1.930;2023-12-20T00:39:09;100609.15;;;6.12;80.21
60642;BME280;46837;52.446;-1.930;2023-12-20T00:40:09;100605.55;;;6.11;80.33
60642;BME280;46837;52.446;-1.930;2023-12-20T00:41:09;100603.39;;;6.13;80.35
60642;BME280;46837;52.446;-1.930;2023-12-20T00:42:09;100604.62;;;6.12;80.28
60642;BME280;46837;52.446;-1.930;2023-12-20T00:43:09;100605.34;;;6.13;80.29
60642;BME280;46837;52.446;-1.930;2023-12-20T00:44:09;100611.51;;;6.10;80.32
60642;BME280;46837;52.446;-1.930;2023-12-20T00:45:09;100610.02;;;6.13;80.41
60642;BME280;46837;52.446;-1.930;2023-12-20T00:46:09;100609.32;;;6.13;80.25
60642;BME280;46837;52.446;-1.930;2023-12-20T00:47:09;100610.27;;;6.13;80.30
60642;BME280;46837;52.446;-1.930;2023-12-20T00:48:09;100606.43;;;6.11;80.20
60642;BME280;46837;52.446;-1.930;2023-12-20T00:49:09;100605.59;;;6.14;80.33
60642;BME280;46837;52.446;-1.930;2023-12-20T00:50:09;100604.97;;;6.09;80.36
60642;BME280;46837;52.446;-1.930;2023-12-20T00:51:09;100608.21;;;6.10;80.30
60642;BME280;46837;52.446;-1.930;2023-12-20T00:52:09;100608.71;;;6.11;80.30
60642;BME280;46837;52.446;-1.930;2023-12-20T00:53:09;100606.88;;;6.09;80.31
60642;BME280;46837;52.446;-1.930;2023-12-20T00:54:09;100605.20;;;6.12;80.42
60642;BME280;46837;52.446;-1.930;2023-12-20T00:55:09;100604.58;;;6.10;80.30
60642;BME280;46837;52.446;-1.930;2023-12-20T00:56:09;100595.09;;;6.03;80.31
60642;BME280;46837;52.446;-1.930;2023-12-20T00:57:09;100600.97;;;6.06;80.55
60642;BME280;46837;52.446;-1.930;2023-12-20T00:58:09;100608.25;;;6.06;80.47
60642;BME280;46837;52.446;-1.930;2023-12-20T00:59:09;100604.48;;;6.05;80.62
60642;BME280;46837;52.446;-1.930;2023-12-20T01:00:09;100608.20;;;6.05;80.65
60642;BME280;46837;52.446;-1.930;2023-12-20T01:01:09;100606.97;;;6.07;80.54
60642;BME280;46837;52.446;-1.930;2023-12-20T01:02:09;100602.87;;;6.04;80.70
60642;BME280;46837;52.446;-1.930;2023-12-20T01:03:09;100602.85;;;6.05;80.64
60642;BME280;46837;52.446;-1.930;2023-12-20T01:04:09;100603.52;;;6.04;80.57
60642;BME280;46837;52.446;-1.930;2023-12-20T01:05:09;100602.32;;;6.06;80.59
60642;BME280;46837;52.446;-1.930;2023-12-20T01:06:09;100607.27;;;6.08;80.55
60642;BME280;46837;52.446;-1.930;2023-12-20T01:07:09;100603.88;;;6.07;80.65
60642;BME280;46837;52.446;-1.930;2023-12-20T01:08:09;100602.89;;;6.11;80.50
60642;BME280;46837;52.446;-1.930;2023-12-20T01:09:09;100601.67;;;6.09;80.39
60642;BME280;46837;52.446;-1.930;2023-12-20T01:10:09;100601.55;;;6.09;80.46
60642;BME280;46837;52.446;-1.930;2023-12-20T01:11:09;100600.29;;;6.07;80.63
60642;BME280;46837;52.446;-1.930;2023-12-20T01:12:09;100602.87;;;6.12;80.52
60642;BME280;46837;52.446;-1.930;2023-12-20T01:13:09;100600.15;;;6.12;80.42
60642;BME280;46837;52.446;-1.930;2023-12-20T01:14:09;100606.58;;;6.14;80.48
60642;BME280;46837;52.446;-1.930;2023-12-20T01:15:09;100605.88;;;6.13;80.41
60642;BME280;46837;52.446;-1.930;2023-12-20T01:16:10;100601.97;;;6.10;80.39
60642;BME280;46837;52.446;-1.930;2023-12-20T01:17:09;100595.07;;;6.10;80.39
60642;BME280;46837;52.446;-1.930;2023-12-20T01:18:09;100588.55;;;6.10;80.59
60642;BME280;46837;52.446;-1.930;2023-12-20T01:19:09;100585.64;;;6.11;80.58
60642;BME280;46837;52.446;-1.930;2023-12-20T01:20:09;100584.25;;;6.08;80.45
60642;BME280;46837;52.446;-1.930;2023-12-20T01:21:09;100576.51;;;6.06;80.58
60642;BME280;46837;52.446;-1.930;2023-12-20T01:22:09;100584.83;;;6.05;80.74
60642;BME280;46837;52.446;-1.930;2023-12-20T01:23:09;100582.88;;;6.07;80.71
60642;BME280;46837;52.446;-1.930;2023-12-20T01:24:09;100584.60;;;6.08;80.68
60642;BME280;46837;52.446;-1.930;2023-12-20T01:25:09;100575.86;;;6.04;80.64
60642;BME280;46837;52.446;-1.930;2023-12-20T01:26:09;100579.79;;;6.05;80.80
60642;BME280;46837;52.446;-1.930;2023-12-20T01:27:09;100577.37;;;6.06;80.78
60642;BME280;46837;52.446;-1.930;2023-12-20T01:28:09;100578.66;;;6.03;80.87
60642;BME280;46837;52.446;-1.930;2023-12-20T01:29:09;100579.04;;;6.04;80.79
60642;BME280;46837;52.446;-1.930;2023-12-20T01:30:09;100575.62;;;6.04;80.78
60642;BME280;46837;52.446;-1.930;2023-12-20T01:31:09;100578.37;;;6.01;80.97
60642;BME280;46837;52.446;-1.930;2023-12-20T01:32:09;100575.74;;;6.02;80.90
60642;BME280;46837;52.446;-1.930;2023-12-20T01:33:09;100580.16;;;6.03;80.90
60642;BME280;46837;52.446;-1.930;2023-12-20T01:34:09;100576.63;;;6.03;80.82
60642;BME280;46837;52.446;-1.930;2023-12-20T01:35:09;100575.65;;;6.03;80.81
60642;BME280;46837;52.446;-1.930;2023-12-20T01:36:09;100571.51;;;6.00;80.88
60642;BME280;46837;52.446;-1.930;2023-12-20T01:37:09;100570.16;;;5.98;80.97
60642;BME280;46837;52.446;-1.930;2023-12-20T01:38:09;100571.52;;;6.00;80.95
60642;BME280;46837;52.446;-1.930;2023-12-20T01:39:09;100574.02;;;6.01;80.94
60642;BME280;46837;52.446;-1.930;2023-12-20T01:40:09;100575.25;;;6.00;80.88
60642;BME280;46837;52.446;-1.930;2023-12-20T01:41:09;100573.00;;;6.01;80.89
60642;BME280;46837;52.446;-1.930;2023-12-20T01:42:09;100572.42;;;6.02;80.87
60642;BME280;46837;52.446;-1.930;2023-12-20T01:43:09;100577.39;;;6.05;80.91
60642;BME280;46837;52.446;-1.930;2023-12-20T01:44:09;100576.84;;;6.02;80.90
60642;BME280;46837;52.446;-1.930;2023-12-20T01:45:09;100577.05;;;6.00;80.93
60642;BME280;46837;52.446;-1.930;2023-12-20T01:46:10;100581.39;;;6.01;81.03
60642;BME280;46837;52.446;-1.930;2023-12-20T01:47:09;100575.72;;;5.99;81.08
60642;BME280;46837;52.446;-1.930;2023-12-20T01:48:09;100579.86;;;5.98;81.18
60642;BME280;46837;52.446;-1.930;2023-12-20T01:49:09;100579.49;;;6.00;81.18
60642;BME280;46837;52.446;-1.930;2023-12-20T01:50:09;100574.96;;;5.99;81.16
60642;BME280;46837;52.446;-1.930;2023-12-20T01:51:09;100571.56;;;6.00;81.18
60642;BME280;46837;52.446;-1.930;2023-12-20T01:52:09;100574.28;;;5.98;81.20
60642;BME280;46837;52.446;-1.930;2023-12-20T01:53:09;100573.84;;;5.98;81.30
60642;BME280;46837;52.446;-1.930;2023-12-20T01:54:09;100574.57;;;5.96;81.34
60642;BME280;46837;52.446;-1.930;2023-12-20T01:55:13;100574.14;;;5.97;81.47
60642;BME280;46837;52.446;-1.930;2023-12-20T01:56:09;100573.31;;;5.96;81.46
60642;BME280;46837;52.446;-1.930;2023-12-20T01:57:09;100572.14;;;5.94;81.52
60642;BME280;46837;52.446;-1.930;2023-12-20T01:58:09;100572.98;;;5.92;81.55
60642;BME280;46837;52.446;-1.930;2023-12-20T01:59:09;100573.21;;;5.93;81.76
60642;BME280;46837;52.446;-1.930;2023-12-20T02:00:09;100575.67;;;5.94;81.75
60642;BME280;46837;52.446;-1.930;2023-12-20T02:01:09;100573.52;;;5.96;81.72
60642;BME280;46837;52.446;-1.930;2023-12-20T02:02:09;100575.05;;;5.96;81.62
60642;BME280;46837;52.446;-1.930;2023-12-20T02:03:09;100567.91;;;5.95;81.63
60642;BME280;46837;52.446;-1.930;2023-12-20T02:04:09;100570.65;;;5.97;81.71
60642;BME280;46837;52.446;-1.930;2023-12-20T02:05:09;100569.65;;;5.94;81.67
60642;BME280;46837;52.446;-1.930;2023-12-20T02:06:09;100570.73;;;5.95;81.76
60642;BME280;46837;52.446;-1.930;2023-12-20T02:07:09;100570.38;;;5.92;81.75
60642;BME280;46837;52.446;-1.930;2023-12-20T02:08:09;100566.71;;;5.93;81.89
60642;BME280;46837;52.446;-1.930;2023-12-20T02:09:09;100570.33;;;5.96;81.90
60642;BME280;46837;52.446;-1.930;2023-12-20T02:10:09;100563.34;;;5.96;81.79
60642;BME280;46837;52.446;-1.930;2023-12-20T02:11:09;100561.61;;;5.97;81.78
60642;BME280;46837;52.446;-1.930;2023-12-20T02:12:09;100553.66;;;5.98;81.71
60642;BME280;46837;52.446;-1.930;2023-12-20T02:13:09;100553.38;;;5.98;81.69
60642;BME280;46837;52.446;-1.930;2023-12-20T02:14:09;100553.70;;;5.98;81.74
60642;BME280;46837;52.446;-1.930;2023-12-20T02:15:09;100551.31;;;5.97;81.72
60642;BME280;46837;52.446;-1.930;2023-12-20T02:16:09;100553.56;;;5.97;81.76
60642;BME280;46837;52.446;-1.930;2023-12-20T02:17:09;100552.15;;;5.96;81.88
60642;BME280;46837;52.446;-1.930;2023-12-20T02:18:09;100554.03;;;5.98;81.82
60642;BME280;46837;52.446;-1.930;2023-12-20T02:19:13;100554.19;;;5.98;81.82
60642;BME280;46837;52.446;-1.930;2023-12-20T02:20:09;100550.68;;;5.94;81.92
60642;BME280;46837;52.446;-1.930;2023-12-20T02:21:09;100552.78;;;5.95;82.03
60642;BME280;46837;52.446;-1.930;2023-12-20T02:22:11;100553.26;;;5.94;82.07
60642;BME280;46837;52.446;-1.930;2023-12-20T02:23:09;100551.91;;;5.94;82.11
60642;BME280;46837;52.446;-1.930;2023-12-20T02:24:09;100554.71;;;5.96;82.08
60642;BME280;46837;52.446;-1.930;2023-12-20T02:25:09;100556.06;;;5.96;82.03
60642;BME280;46837;52.446;-1.930;2023-12-20T02:26:09;100549.80;;;5.96;82.04
60642;BME280;46837;52.446;-1.930;2023-12-20T02:27:09;100548.76;;;5.95;82.09
60642;BME280;46837;52.446;-1.930;2023-12-20T02:28:09;100549.25;;;5.95;82.09
60642;BME280;46837;52.446;-1.930;2023-12-20T02:29:09;100558.61;;;5.95;82.11
60642;BME280;46837;52.446;-1.930;2023-12-20T02:30:09;100555.64;;;5.93;82.27
60642;BME280;46837;52.446;-1.930;2023-12-20T02:31:09;100555.73;;;5.94;82.31
60642;BME280;46837;52.446;-1.930;2023-12-20T02:32:09;100562.12;;;5.96;82.29
60642;BME280;46837;52.446;-1.930;2023-12-20T02:33:11;100557.56;;;5.98;82.27
60642;BME280;46837;52.446;-1.930;2023-12-20T02:34:09;100554.77;;;5.97;82.20
60642;BME280;46837;52.446;-1.930;2023-12-20T02:35:09;100556.45;;;5.97;82.21
60642;BME280;46837;52.446;-1.930;2023-12-20T02:36:09;100563.88;;;5.97;82.27
60642;BME280;46837;52.446;-1.930;2023-12-20T02:37:09;100559.56;;;5.98;82.27
60642;BME280;46837;52.446;-1.930;2023-12-20T02:38:09;100559.58;;;5.97;82.26
60642;BME280;46837;52.446;-1.930;2023-12-20T02:39:09;100557.52;;;5.94;82.42
60642;BME280;46837;52.446;-1.930;2023-12-20T02:40:09;100557.73;;;5.96;82.40
60642;BME280;46837;52.446;-1.930;2023-12-20T02:41:09;100556.82;;;5.97;82.37
60642;BME280;46837;52.446;-1.930;2023-12-20T02:42:09;100561.98;;;5.95;82.39
60642;BME280;46837;52.446;-1.930;2023-12-20T02:43:09;100559.36;;;5.96;82.43
60642;BME280;46837;52.446;-1.930;2023-12-20T02:44:09;100563.54;;;5.96;82.33
60642;BME280;46837;52.446;-1.930;2023-12-20T02:45:09;100565.93;;;5.98;82.34
60642;BME280;46837;52.446;-1.930;2023-12-20T02:46:09;100566.24;;;5.96;82.33
60642;BME280;46837;52.446;-1.930;2023-12-20T02:47:09;100562.94;;;5.96;82.40
60642;BME280;46837;52.446;-1.930;2023-12-20T02:48:09;100564.49;;;5.94;82.47
60642;BME280;46837;52.446;-1.930;2023-12-20T02:49:09;100568.22;;;5.96;82.52
60642;BME280;46837;52.446;-1.930;2023-12-20T02:50:09;100565.82;;;5.96;82.48
60642;BME280;46837;52.446;-1.930;2023-12-20T02:51:09;100562.86;;;5.97;82.44
60642;BME280;46837;52.446;-1.930;2023-12-20T02:52:09;100563.72;;;5.97;82.45
60642;BME280;46837;52.446;-1.930;2023-12-20T02:53:09;100560.52;;;5.99;82.45
60642;BME280;46837;52.446;-1.930;2023-12-20T02:54:09;100556.12;;;5.99;82.41
60642;BME280;46837;52.446;-1.930;2023-12-20T02:55:09;100562.05;;;6.01;82.42
60642;BME280;46837;52.446;-1.930;2023-12-20T02:56:09;100563.00;;;6.02;82.40
60642;BME280;46837;52.446;-1.930;2023-12-20T02:57:09;100557.72;;;6.02;82.41
60642;BME280;46837;52.446;-1.930;2023-12-20T02:58:09;100562.07;;;6.04;82.43
60642;BME280;46837;52.446;-1.930;2023-12-20T02:59:11;100561.58;;;6.06;82.44
60642;BME280;46837;52.446;-1.930;2023-12-20T03:00:09;100561.74;;;6.10;82.48
60642;BME280;46837;52.446;-1.930;2023-12-20T03:01:09;100556.21;;;6.10;82.42
60642;BME280;46837;52.446;-1.930;2023-12-20T03:02:09;100560.04;;;6.11;82.58
60642;BME280;46837;52.446;-1.930;2023-12-20T03:03:09;100551.57;;;6.15;82.50
60642;BME280;46837;52.446;-1.930;2023-12-20T03:04:09;100556.59;;;6.20;82.43
60642;BME280;46837;52.446;-1.930;2023-12-20T03:05:09;100552.86;;;6.23;82.32
60642;BME280;46837;52.446;-1.930;2023-12-20T03:06:09;100551.66;;;6.24;82.33
60642;BME280;46837;52.446;-1.930;2023-12-20T03:07:09;100555.70;;;6.25;82.38
60642;BME280;46837;52.446;-1.930;2023-12-20T03:08:09;100552.91;;;6.26;82.36
60642;BME280;46837;52.446;-1.930;2023-12-20T03:09:09;100554.92;;;6.29;82.28
60642;BME280;46837;52.446;-1.930;2023-12-20T03:10:09;100558.22;;;6.34;82.21
60642;BME280;46837;52.446;-1.930;2023-12-20T03:11:09;100550.86;;;6.36;82.15
60642;BME280;46837;52.446;-1.930;2023-12-20T03:12:09;100549.94;;;6.40;82.14
60642;BME280;46837;52.446;-1.930;2023-12-20T03:13:09;100548.93;;;6.43;82.01
60642;BME280;46837;52.446;-1.930;2023-12-20T03:14:09;100550.00;;;6.46;82.05
60642;BME280;46837;52.446;-1.930;2023-12-20T03:15:09;100553.96;;;6.51;82.01
60642;BME280;46837;52.446;-1.930;2023-12-20T03:16:11;100546.94;;;6.52;81.95
60642;BME280;46837;52.446;-1.930;2023-12-20T03:17:09;100545.93;;;6.53;81.96
60642;BME280;46837;52.446;-1.930;2023-12-20T03:18:09;100551.43;;;6.58;81.88
60642;BME280;46837;52.446;-1.930;2023-12-20T03:19:09;100549.82;;;6.61;81.74
60642;BME280;46837;52.446;-1.930;2023-12-20T03:20:09;100550.05;;;6.61;81.68
60642;BME280;46837;52.446;-1.930;2023-12-20T03:21:09;100546.30;;;6.61;81.67
60642;BME280;46837;52.446;-1.930;2023-12-20T03:22:09;100540.80;;;6.65;81.61
60642;BME280;46837;52.446;-1.930;2023-12-20T03:23:09;100539.62;;;6.63;81.55
60642;BME280;46837;52.446;-1.930;2023-12-20T03:24:09;100540.61;;;6.64;81.56
60642;BME280;46837;52.446;-1.930;2023-12-20T03:25:09;100535.77;;;6.64;81.58
60642;BME280;46837;52.446;-1.930;2023-12-20T03:26:09;100539.23;;;6.62;81.52
60642;BME280;46837;52.446;-1.930;2023-12-20T03:27:09;100529.29;;;6.61;81.52
60642;BME280;46837;52.446;-1.930;2023-12-20T03:28:09;100532.50;;;6.61;81.55
60642;BME280;46837;52.446;-1.930;2023-12-20T03:29:09;100531.84;;;6.60;81.50
60642;BME280;46837;52.446;-1.930;2023-12-20T03:30:09;100525.09;;;6.57;81.57
60642;BME280;46837;52.446;-1.930;2023-12-20T03:31:09;100530.68;;;6.57;81.64
60642;BME280;46837;52.446;-1.930;2023-12-20T03:32:09;100531.86;;;6.57;81.66
60642;BME280;46837;52.446;-1.930;2023-12-20T03:33:09;100533.71;;;6.55;81.63
60642;BME280;46837;52.446;-1.930;2023-12-20T03:34:09;100537.60;;;6.56;81.70
60642;BME280;46837;52.446;-1.930;2023-12-20T03:35:09;100533.07;;;6.53;81.72
60642;BME280;46837;52.446;-1.930;2023-12-20T03:36:09;100530.13;;;6.55;81.75
60642;BME280;46837;52.446;-1.930;2023-12-20T03:37:09;100532.71;;;6.56;81.73
60642;BME280;46837;52.446;-1.930;2023-12-20T03:38:09;100535.60;;;6.54;81.84
60642;BME280;46837;52.446;-1.930;2023-12-20T03:39:09;100541.83;;;6.54;81.90
60642;BME280;46837;52.446;-1.930;2023-12-20T03:40:09;100536.18;;;6.55;81.98
60642;BME280;46837;52.446;-1.930;2023-12-20T03:41:09;100533.13;;;6.60;81.91
60642;BME280;46837;52.446;-1.930;2023-12-20T03:42:09;100529.96;;;6.61;81.80
60642;BME280;46837;52.446;-1.930;2023-12-20T03:43:09;100532.56;;;6.63;81.75
60642;BME280;46837;52.446;-1.930;2023-12-20T03:44:09;100531.35;;;6.66;81.80
60642;BME280;46837;52.446;-1.930;2023-12-20T03:45:09;100532.17;;;6.67;81.72
60642;BME280;46837;52.446;-1.930;2023-12-20T03:46:10;100528.15;;;6.67;81.76
60642;BME280;46837;52.446;-1.930;2023-12-20T03:47:09;100527.96;;;6.68;81.77
60642;BME280;46837;52.446;-1.930;2023-12-20T03:48:09;100521.74;;;6.66;81.74
60642;BME280;46837;52.446;-1.930;2023-12-20T03:49:09;100523.35;;;6.68;81.68
60642;BME280;46837;52.446;-1.930;2023-12-20T03:50:09;100526.66;;;6.68;81.60
60642;BME280;46837;52.446;-1.930;2023-12-20T03:51:09;100523.21;;;6.67;81.63
60642;BME280;46837;52.446;-1.930;2023-12-20T03:52:09;100530.97;;;6.67;81.62
60642;BME280;46837;52.446;-1.930;2023-12-20T03:53:09;100531.35;;;6.65;81.61
60642;BME280;46837;52.446;-1.930;2023-12-20T03:54:09;100531.74;;;6.65;81.72
60642;BME280;46837;52.446;-1.930;2023-12-20T03:55:09;100535.05;;;6.65;81.65
60642;BME280;46837;52.446;-1.930;2023-12-20T03:56:09;100537.13;;;6.63;81.65
60642;BME280;46837;52.446;-1.930;2023-12-20T03:57:09;100537.17;;;6.67;81.76
60642;BME280;46837;52.446;-1.930;2023-12-20T03:58:09;100531.45;;;6.67;81.77
60642;BME280;46837;52.446;-1.930;2023-12-20T03:59:09;100532.81;;;6.71;81.81
60642;BME280;46837;52.446;-1.930;2023-12-20T04:00:09;100531.03;;;6.74;81.78
60642;BME280;46837;52.446;-1.930;2023-12-20T04:01:11;100528.68;;;6.77;81.75
60642;BME280;46837;52.446;-1.930;2023-12-20T04:02:09;100531.85;;;6.79;81.72
60642;BME280;46837;52.446;-1.930;2023-12-20T04:03:09;100535.17;;;6.81;81.71
60642;BME280;46837;52.446;-1.930;2023-12-20T04:04:09;100538.88;;;6.86;81.69
60642;BME280;46837;52.446;-1.930;2023-12-20T04:05:09;100542.04;;;6.87;81.62
60642;BME280;46837;52.446;-1.930;2023-12-20T04:06:09;100537.80;;;6.87;81.74
60642;BME280;46837;52.446;-1.930;2023-12-20T04:07:09;100537.32;;;6.91;81.67
60642;BME280;46837;52.446;-1.930;2023-12-20T04:08:09;100541.64;;;6.94;81.56
60642;BME280;46837;52.446;-1.930;2023-12-20T04:09:09;100538.82;;;6.98;81.50
60642;BME280;46837;52.446;-1.930;2023-12-20T04:10:09;100538.01;;;6.96;81.49
60642;BME280;46837;52.446;-1.930;2023-12-20T04:11:09;100535.29;;;7.00;81.53
60642;BME280;46837;52.446;-1.930;2023-12-20T04:12:09;100537.91;;;7.03;81.50
60642;BME280;46837;52.446;-1.930;2023-12-20T04:13:09;100538.14;;;7.03;81.45
60642;BME280;46837;52.446;-1.930;2023-12-20T04:14:09;100543.61;;;7.03;81.61
60642;BME280;46837;52.446;-1.930;2023-12-20T04:15:12;100536.51;;;7.03;81.61
60642;BME280;46837;52.446;-1.930;2023-12-20T04:16:09;100536.63;;;7.07;81.61
60642;BME280;46837;52.446;-1.930;2023-12-20T04:17:09;100537.99;;;7.09;81.53
60642;BME280;46837;52.446;-1.930;2023-12-20T04:18:09;100534.49;;;7.10;81.56
60642;BME280;46837;52.446;-1.930;2023-12-20T04:19:09;100535.91;;;7.11;81.54
60642;BME280;46837;52.446;-1.930;2023-12-20T04:20:09;100537.89;;;7.11;81.52
60642;BME280;46837;52.446;-1.930;2023-12-20T04:21:09;100536.01;;;7.13;81.49
60642;BME280;46837;52.446;-1.930;2023-12-20T04:22:09;100531.07;;;7.13;81.58
60642;BME280;46837;52.446;-1.930;2023-12-20T04:23:09;100526.23;;;7.13;81.53
60642;BME280;46837;52.446;-1.930;2023-12-20T04:24:09;100522.45;;;7.16;81.47
60642;BME280;46837;52.446;-1.930;2023-12-20T04:25:09;100520.80;;;7.15;81.50
60642;BME280;46837;52.446;-1.930;2023-12-20T04:26:09;100524.39;;;7.18;81.48
60642;BME280;46837;52.446;-1.930;2023-12-20T04:27:09;100519.21;;;7.19;81.46
60642;BME280;46837;52.446;-1.930;2023-12-20T04:28:09;100527.65;;;7.18;81.49
60642;BME280;46837;52.446;-1.930;2023-12-20T04:29:09;100529.80;;;7.21;81.53
60642;BME280;46837;52.446;-1.930;2023-12-20T04:30:09;100529.18;;;7.23;81.50
60642;BME280;46837;52.446;-1.930;2023-12-20T04:31:09;100534.84;;;7.23;81.50
60642;BME280;46837;52.446;-1.930;2023-12-20T04:32:09;100532.32;;;7.25;81.50
60642;BME280;46837;52.446;-1.930;2023-12-20T04:33:09;100529.59;;;7.27;81.46
60642;BME280;46837;52.446;-1.930;2023-12-20T04:34:09;100528.56;;;7.29;81.39
60642;BME280;46837;52.446;-1.930;2023-12-20T04:35:09;100527.22;;;7.31;81.40
60642;BME280;46837;52.446;-1.930;2023-12-20T04:36:09;100520.80;;;7.30;81.39
60642;BME280;46837;52.446;-1.930;2023-12-20T04:37:09;100509.74;;;7.34;81.42
60642;BME280;46837;52.446;-1.930;2023-12-20T04:38:09;100510.09;;;7.35;81.43
60642;BME280;46837;52.446;-1.930;2023-12-20T04:39:09;100506.18;;;7.38;81.38
60642;BME280;46837;52.446;-1.930;2023-12-20T04:40:09;100504.80;;;7.39;81.34
60642;BME280;46837;52.446;-1.930;2023-12-20T04:41:09;100501.47;;;7.41;81.30
60642;BME280;46837;52.446;-1.930;2023-12-20T04:42:09;100504.70;;;7.43;81.34
60642;BME280;46837;52.446;-1.930;2023-12-20T04:43:09;100502.88;;;7.44;81.38
60642;BME280;46837;52.446;-1.930;2023-12-20T04:44:09;100506.75;;;7.44;81.35
60642;BME280;46837;52.446;-1.930;2023-12-20T04:45:09;100500.88;;;7.44;81.46
60642;BME280;46837;52.446;-1.930;2023-12-20T04:46:09;100500.16;;;7.46;81.44
60642;BME280;46837;52.446;-1.930;2023-12-20T04:47:09;100507.66;;;7.46;81.55
60642;BME280;46837;52.446;-1.930;2023-12-20T04:48:09;100509.20;;;7.45;81.56
60642;BME280;46837;52.446;-1.930;2023-12-20T04:49:09;100504.43;;;7.45;81.62
60642;BME280;46837;52.446;-1.930;2023-12-20T04:50:09;100503.84;;;7.46;81.62
60642;BME280;46837;52.446;-1.930;2023-12-20T04:51:09;100497.95;;;7.45;81.71
60642;BME280;46837;52.446;-1.930;2023-12-20T04:52:09;100499.79;;;7.44;81.84
60642;BME280;46837;52.446;-1.930;2023-12-20T04:53:09;100498.20;;;7.43;81.87
60642;BME280;46837;52.446;-1.930;2023-12-20T04:54:09;100492.19;;;7.45;81.85
60642;BME280;46837;52.446;-1.930;2023-12-20T04:55:09;100493.34;;;7.48;81.72
60642;BME280;46837;52.446;-1.930;2023-12-20T04:56:09;100494.94;;;7.49;81.72
60642;BME280;46837;52.446;-1.930;2023-12-20T04:57:09;100493.40;;;7.46;81.80
60642;BME280;46837;52.446;-1.930;2023-12-20T04:58:09;100497.03;;;7.47;81.82
60642;BME280;46837;52.446;-1.930;2023-12-20T04:59:09;100496.43;;;7.50;81.80
60642;BME280;46837;52.446;-1.930;2023-12-20T05:00:09;100497.40;;;7.52;81.71
60642;BME280;46837;52.446;-1.930;2023-12-20T05:01:09;100495.98;;;7.54;81.71
60642;BME280;46837;52.446;-1.930;2023-12-20T05:02:09;100489.93;;;7.51;81.65
60642;BME280;46837;52.446;-1.930;2023-12-20T05:03:09;100492.81;;;7.51;81.76
60642;BME280;46837;52.446;-1.930;2023-12-20T05:04:09;100496.28;;;7.53;81.72
60642;BME280;46837;52.446;-1.930;2023-12-20T05:05:09;100498.25;;;7.51;81.68
60642;BME280;46837;52.446;-1.930;2023-12-20T05:06:09;100499.48;;;7.53;81.72
60642;BME280;46837;52.446;-1.930;2023-12-20T05:07:09;100496.54;;;7.53;81.72
60642;BME280;46837;52.446;-1.930;2023-12-20T05:08:09;100496.02;;;7.51;81.75
60642;BME280;46837;52.446;-1.930;2023-12-20T05:09:09;100499.01;;;7.51;81.76
60642;BME280;46837;52.446;-1.930;2023-12-20T05:10:09;100502.00;;;7.49;81.82
60642;BME280;46837;52.446;-1.930;2023-12-20T05:11:09;100498.32;;;7.46;81.87
60642;BME280;46837;52.446;-1.930;2023-12-20T05:12:09;100495.24;;;7.45;81.82
60642;BME280;46837;52.446;-1.930;2023-12-20T05:13:09;100495.76;;;7.44;81.83